Time;durP1;ratioP1;P1;durP2;ratioP2;P2;SDS_P1;SDS_P2;PMS_P1;PMS_P2;Temp;Humidity;BMP_temperature;BMP_pressure;BME280_temperature;BME280_humidity;BME280_pressure;Samples;Min_cycle;Max_cycle;Signal;HPM_P1;HPM_P2
2021/12/02 00:01:09;;;;;;;2.17;1.70;;;;;;;;;;6304502;28;20049;-85
2021/12/02 00:04:10;;;;;;;2.00;1.48;;;;;;;;;;6304153;28;20377;-88
2021/12/02 00:07:10;;;;;;;2.90;1.75;;;6.30;99.90;;;;;;6304216;28;20028;-88
2021/12/02 00:10:11;;;;;;;1.70;1.50;;;;;;;;;;6303401;28;20052;-88
2021/12/02 00:13:12;;;;;;;2.25;1.70;;;;;;;;;;6304070;28;20031;-89
2021/12/02 00:22:34;;;;;;;2.55;1.45;;;6.90;99.90;;;;;;6307133;28;20462;-90
2021/12/02 00:25:34;;;;;;;2.00;1.80;;;6.30;99.90;;;;;;6287245;28;20056;-90
2021/12/02 00:28:36;;;;;;;1.40;1.20;;;7.00;99.90;;;;;;6287764;28;20093;-89
2021/12/02 00:31:38;;;;;;;1.48;1.23;;;6.30;99.90;;;;;;6287249;28;20028;-89
2021/12/02 00:34:44;;;;;;;3.03;1.83;;;6.20;99.90;;;;;;6286853;28;20028;-88
2021/12/02 00:37:45;;;;;;;1.98;1.67;;;7.60;99.90;;;;;;6287120;28;20150;-87
2021/12/02 00:40:46;;;;;;;1.95;1.33;;;;;;;;;;6286661;28;20032;-88
2021/12/02 00:43:47;;;;;;;1.98;1.52;;;6.10;99.90;;;;;;6303581;28;20028;-87
2021/12/02 00:46:48;;;;;;;3.25;1.83;;;6.20;99.90;;;;;;6286374;28;20047;-89
2021/12/02 00:49:49;;;;;;;1.67;1.35;;;;;;;;;;6286794;28;20028;-88
2021/12/02 00:52:49;;;;;;;3.80;1.67;;;6.30;99.90;;;;;;6303084;28;20027;-87
2021/12/02 00:55:50;;;;;;;1.30;1.20;;;7.10;99.90;;;;;;6286624;28;20024;-88
2021/12/02 00:58:51;;;;;;;1.73;1.30;;;6.20;99.90;;;;;;6285939;28;20409;-89
2021/12/02 01:01:51;;;;;;;1.40;1.15;;;6.00;99.90;;;;;;6302791;28;20020;-87
2021/12/02 01:04:53;;;;;;;1.67;1.13;;;6.20;99.90;;;;;;6286149;28;20032;-87
2021/12/02 01:07:53;;;;;;;1.52;1.42;;;6.90;99.90;;;;;;6302932;28;20389;-88
2021/12/02 01:10:54;;;;;;;1.98;1.30;;;8.30;99.90;;;;;;6286054;28;20028;-89
2021/12/02 01:13:55;;;;;;;2.45;1.38;;;;;;;;;;6286173;28;20432;-87
2021/12/02 01:16:56;;;;;;;2.33;1.25;;;;;;;;;;6302420;28;20024;-84
2021/12/02 01:19:56;;;;;;;2.03;1.30;;;6.40;99.90;;;;;;6302077;28;20039;-86
2021/12/02 01:22:59;;;;;;;1.75;1.63;;;7.10;99.90;;;;;;6303465;28;20024;-86
2021/12/02 01:26:05;;;;;;;5.05;1.77;;;6.10;99.90;;;;;;6285709;28;20460;-90
2021/12/02 01:29:05;;;;;;;4.50;2.00;;;6.60;99.90;;;;;;6286903;28;20032;-89
2021/12/02 01:32:07;;;;;;;3.08;1.70;;;;;;;;;;6285398;28;20117;-89
2021/12/02 01:35:08;;;;;;;1.70;1.38;;;6.10;99.90;;;;;;6302376;28;20027;-88
2021/12/02 01:42:07;;;;;;;2.38;1.60;;;6.10;99.90;;;;;;6320442;28;20023;-86
2021/12/02 01:45:08;;;;;;;2.47;1.67;;;;;;;;;;6301261;28;20032;-86
2021/12/02 01:48:10;;;;;;;3.97;2.25;;;5.90;99.90;;;;;;6301874;28;20402;-85
2021/12/02 01:51:11;;;;;;;3.33;2.28;;;6.00;99.90;;;;;;6285213;28;20077;-86
2021/12/02 01:54:19;;;;;;;1.55;1.45;;;6.00;99.90;;;;;;6283936;28;20032;-87
2021/12/02 01:57:30;;;;;;;2.35;2.13;;;5.80;99.90;;;;;;6301051;28;20028;-88
2021/12/02 02:00:46;;;;;;;4.15;1.50;;;5.80;99.90;;;;;;6285268;28;20063;-85
2021/12/02 02:03:47;;;;;;;3.63;1.80;;;5.90;99.90;;;;;;6287912;28;20113;-87
2021/12/02 02:06:56;;;;;;;2.60;1.80;;;6.00;99.90;;;;;;6301575;28;20051;-87
2021/12/02 02:09:56;;;;;;;4.85;1.98;;;5.90;99.90;;;;;;6284882;28;20027;-86
2021/12/02 02:13:00;;;;;;;4.95;1.98;;;;;;;;;;6284842;28;20085;-86
2021/12/02 02:16:01;;;;;;;4.57;2.08;;;5.90;99.90;;;;;;6301779;28;20024;-87
2021/12/02 02:19:02;;;;;;;3.45;1.92;;;6.40;99.90;;;;;;6285036;28;20067;-87
2021/12/02 02:22:02;;;;;;;2.70;2.05;;;5.90;99.90;;;;;;6284595;28;20035;-86
2021/12/02 02:25:06;;;;;;;3.67;1.90;;;6.00;99.90;;;;;;6283981;28;20077;-86
2021/12/02 02:28:07;;;;;;;3.97;2.30;;;5.80;99.90;;;;;;6284911;28;20063;-86
2021/12/02 02:31:07;;;;;;;3.15;1.75;;;6.10;99.90;;;;;;6300832;28;20373;-86
2021/12/02 02:34:08;;;;;;;2.65;2.00;;;6.00;99.90;;;;;;6284228;28;20025;-87
2021/12/02 02:37:09;;;;;;;3.20;2.33;;;5.80;99.90;;;;;;6283817;28;20028;-86
2021/12/02 02:40:12;;;;;;;2.58;1.67;;;6.30;99.90;;;;;;6300362;28;20031;-85
2021/12/02 02:43:21;;;;;;;4.18;1.65;;;6.50;99.90;;;;;;6283606;28;20024;-86
2021/12/02 02:46:26;;;;;;;3.08;1.88;;;7.70;99.90;;;;;;6285907;28;20371;-86
2021/12/02 02:49:27;;;;;;;4.72;2.15;;;6.00;99.90;;;;;;6284102;28;20034;-87
2021/12/02 02:52:30;;;;;;;2.80;1.85;;;;;;;;;;6283935;28;20024;-86
2021/12/02 02:55:31;;;;;;;3.15;1.88;;;6.00;99.90;;;;;;6300686;28;20028;-86
2021/12/02 02:58:46;;;;;;;4.18;2.50;;;7.20;99.90;;;;;;6300655;28;20036;-86
2021/12/02 03:02:03;;;;;;;3.17;2.38;;;5.90;99.90;;;;;;6287715;28;20028;-86
2021/12/02 03:08:18;;;;;;;4.78;2.03;;;5.90;99.90;;;;;;6302224;28;20028;-87
2021/12/02 03:11:19;;;;;;;3.70;2.00;;;5.90;99.90;;;;;;6285319;28;20035;-86
2021/12/02 03:14:28;;;;;;;3.25;2.28;;;;;;;;;;6283714;28;20028;-87
2021/12/02 03:17:32;;;;;;;2.90;1.83;;;5.70;99.90;;;;;;6301990;28;20028;-87
2021/12/02 03:20:32;;;;;;;3.53;2.08;;;5.80;99.90;;;;;;6283447;28;20031;-87
2021/12/02 03:23:49;;;;;;;3.67;1.90;;;5.70;99.90;;;;;;6283553;28;20024;-86
2021/12/02 03:26:50;;;;;;;3.30;1.83;;;5.70;99.90;;;;;;6316646;28;20086;-87
2021/12/02 03:29:51;;;;;;;3.67;1.80;;;5.90;99.90;;;;;;6283665;28;20462;-85
2021/12/02 03:32:51;;;;;;;2.13;1.80;;;6.20;99.90;;;;;;6283805;28;20028;-86
2021/12/02 03:35:52;;;;;;;3.83;1.42;;;5.80;99.90;;;;;;6283841;28;20020;-86
2021/12/02 03:38:52;;;;;;;2.83;1.67;;;6.20;99.90;;;;;;6300260;28;20494;-88
2021/12/02 03:41:54;;;;;;;3.05;1.90;;;;;;;;;;6283278;28;20103;-88
2021/12/02 03:44:54;;;;;;;3.72;2.30;;;5.70;99.90;;;;;;6300741;28;20040;-86
2021/12/02 03:47:55;;;;;;;2.35;1.95;;;;;;;;;;6300248;28;20085;-86
2021/12/02 03:50:56;;;;;;;8.45;4.13;;;;;;;;;;6300019;28;20790;-88
2021/12/02 03:53:57;;;;;;;2.67;2.08;;;;;;;;;;6301987;28;20028;-88
2021/12/02 03:56:59;;;;;;;6.32;2.33;;;;;;;;;;6304941;28;20115;-87
2021/12/02 04:00:01;;;;;;;5.88;2.22;;;;;;;;;;6304706;28;20039;-87
2021/12/02 04:03:02;;;;;;;4.53;2.40;;;;;;;;;;6304595;28;20389;-86
2021/12/02 04:06:03;;;;;;;8.07;3.38;;;;;;;;;;6304758;28;20020;-87
2021/12/02 04:09:12;;;;;;;10.65;3.45;;;;;;;;;;6304815;28;20024;-87
2021/12/02 04:15:31;;;;;;;4.30;2.22;;;5.50;99.90;;;;;;6320768;28;20043;-85
2021/12/02 04:18:31;;;;;;;6.15;3.42;;;5.70;99.90;;;;;;6290497;28;20123;-85
2021/12/02 04:21:32;;;;;;;5.90;2.30;;;;;;;;;;6287296;28;20050;-85
2021/12/02 04:24:33;;;;;;;5.35;2.40;;;5.80;99.90;;;;;;6320470;28;20024;-86
2021/12/02 04:27:34;;;;;;;6.13;2.15;;;;;;;;;;6287276;28;20356;-86
2021/12/02 04:30:35;;;;;;;4.50;2.15;;;5.70;99.90;;;;;;6303936;28;20071;-86
2021/12/02 04:33:35;;;;;;;4.15;2.30;;;5.60;99.90;;;;;;6303485;28;20462;-86
2021/12/02 04:36:36;;;;;;;9.02;2.65;;;;;;;;;;6287140;28;20024;-86
2021/12/02 04:39:37;;;;;;;6.95;2.58;;;5.90;99.90;;;;;;6303711;28;20039;-87
2021/12/02 04:42:38;;;;;;;7.35;2.88;;;;;;;;;;6287129;28;20039;-88
2021/12/02 04:45:39;;;;;;;5.07;2.40;;;5.80;99.90;;;;;;6304010;28;20726;-86
2021/12/02 04:48:40;;;;;;;3.88;2.20;;;;;;;;;;6286577;28;20028;-87
2021/12/02 04:51:41;;;;;;;6.15;2.90;;;;;;;;;;6303474;28;20065;-86
2021/12/02 04:54:41;;;;;;;5.43;2.13;;;5.70;99.90;;;;;;6303472;28;20051;-88
2021/12/02 04:57:42;;;;;;;5.97;2.20;;;8.70;99.90;;;;;;6286537;28;20040;-86
2021/12/02 05:00:43;;;;;;;5.85;2.50;;;;;;;;;;6286199;28;20106;-88
2021/12/02 05:03:44;;;;;;;3.72;2.35;;;5.80;99.90;;;;;;6303652;28;20106;-86
2021/12/02 05:06:45;;;;;;;10.40;3.08;;;;;;;;;;6285432;28;20470;-86
2021/12/02 05:09:45;;;;;;;8.13;2.83;;;5.90;99.90;;;;;;6303091;28;20024;-88
2021/12/02 05:12:46;;;;;;;5.78;2.72;;;6.10;99.90;;;;;;6286468;28;20074;-88
2021/12/02 05:15:47;;;;;;;4.43;2.60;;;;;;;;;;6303035;28;20028;-86
2021/12/02 05:18:48;;;;;;;5.93;2.55;;;;;;;;;;6302471;28;20035;-86
2021/12/02 05:21:49;;;;;;;3.63;2.20;;;5.70;99.90;;;;;;6302734;28;20465;-86
2021/12/02 05:24:49;;;;;;;8.30;2.80;;;5.60;99.90;;;;;;6285660;28;20084;-87
2021/12/02 05:27:50;;;;;;;6.18;2.60;;;5.70;99.90;;;;;;6286337;28;20520;-86
2021/12/02 05:30:51;;;;;;;7.93;2.90;;;;;;;;;;6302489;28;20024;-87
2021/12/02 05:33:51;;;;;;;5.55;2.63;;;5.40;99.90;;;;;;6300882;28;20024;-84
2021/12/02 05:36:53;;;;;;;6.93;2.95;;;6.10;99.90;;;;;;6300234;28;20111;-83
2021/12/02 05:39:53;;;;;;;3.83;2.38;;;5.90;99.90;;;;;;6318933;28;20036;-85
2021/12/02 05:42:54;;;;;;;5.47;2.80;;;5.60;99.90;;;;;;6284373;28;20512;-85
2021/12/02 05:45:55;;;;;;;7.38;2.33;;;;;;;;;;6300897;28;20024;-87
2021/12/02 05:48:55;;;;;;;3.92;2.30;;;5.60;99.90;;;;;;6301139;28;20016;-89
2021/12/02 05:51:56;;;;;;;4.10;2.72;;;;;;;;;;6286132;28;20542;-89
2021/12/02 05:54:58;;;;;;;6.40;2.20;;;;;;;;;;6300663;28;20030;-90
2021/12/02 05:57:58;;;;;;;7.28;2.75;;;5.60;99.90;;;;;;6298292;28;20046;-87
2021/12/02 06:00:59;;;;;;;5.55;2.42;;;5.50;99.90;;;;;;6285122;28;20032;-88
2021/12/02 06:04:01;;;;;;;3.28;2.40;;;;;;;;;;6284489;28;20069;-86
2021/12/02 06:07:02;;;;;;;3.38;2.22;;;;;;;;;;6301752;28;20032;-89
2021/12/02 06:10:03;;;;;;;3.08;2.03;;;5.70;99.90;;;;;;6301513;28;20042;-88
2021/12/02 06:13:04;;;;;;;5.18;2.20;;;5.40;99.90;;;;;;6284650;28;20028;-87
2021/12/02 06:16:05;;;;;;;6.80;2.72;;;5.80;99.90;;;;;;6299119;28;20028;-84
2021/12/02 06:19:06;;;;;;;7.05;2.05;;;5.50;99.90;;;;;;6284351;28;20810;-88
2021/12/02 06:22:10;;;;;;;4.00;2.20;;;5.70;99.90;;;;;;6284858;28;20374;-83
2021/12/02 06:28:15;;;;;;;6.20;2.10;;;5.70;99.90;;;;;;6293194;28;20032;-89
2021/12/02 06:31:16;;;;;;;4.63;2.72;;;6.40;99.90;;;;;;6280743;28;20039;-88
2021/12/02 06:34:16;;;;;;;2.90;1.92;;;5.60;99.90;;;;;;6282120;28;20110;-83
2021/12/02 06:37:17;;;;;;;5.63;2.47;;;;;;;;;;6315556;28;20020;-83
2021/12/02 06:40:18;;;;;;;3.70;2.15;;;;;;;;;;6316896;28;20119;-87
2021/12/02 06:43:19;;;;;;;4.53;2.13;;;5.40;99.90;;;;;;6300045;28;20032;-85
2021/12/02 06:46:20;;;;;;;3.10;1.73;;;;;;;;;;6283470;28;20086;-83
2021/12/02 06:49:20;;;;;;;3.65;2.13;;;5.70;99.90;;;;;;6299674;28;20028;-85
2021/12/02 06:52:23;;;;;;;2.95;2.38;;;5.60;99.90;;;;;;6282687;28;20619;-82
2021/12/02 06:55:24;;;;;;;3.38;1.80;;;5.60;99.90;;;;;;6313194;28;20394;-85
2021/12/02 06:58:25;;;;;;;3.90;1.70;;;6.00;99.90;;;;;;6299578;28;20028;-83
2021/12/02 07:01:26;;;;;;;4.05;2.50;;;5.70;99.90;;;;;;6294455;28;20481;-86
2021/12/02 07:04:27;;;;;;;3.60;2.00;;;;;;;;;;6277256;28;20077;-84
2021/12/02 07:07:31;;;;;;;2.97;1.83;;;5.40;99.90;;;;;;6316964;28;20107;-84
2021/12/02 07:10:33;;;;;;;3.10;2.20;;;5.40;99.90;;;;;;6300338;28;20127;-83
2021/12/02 07:13:35;;;;;;;3.53;2.03;;;5.40;99.90;;;;;;6299823;28;20031;-82
2021/12/02 07:16:38;;;;;;;8.77;2.20;;;;;;;;;;6299934;28;20031;-89
2021/12/02 07:19:40;;;;;;;;;;;5.50;99.90;;;;;;6301105;28;20036;-87
2021/12/02 07:22:41;;;;;;;4.75;2.58;;;5.60;99.90;;;;;;6299435;28;19999;-82
2021/12/02 07:25:42;;;;;;;3.65;2.20;;;5.50;99.90;;;;;;6281813;28;20382;-81
2021/12/02 07:28:44;;;;;;;5.18;2.30;;;5.40;99.90;;;;;;6301298;28;20028;-82
2021/12/02 07:31:45;;;;;;;4.55;2.17;;;5.50;99.90;;;;;;6305086;28;20035;-82
2021/12/02 07:34:46;;;;;;;4.22;2.00;;;;;;;;;;6321518;28;20032;-82
2021/12/02 07:37:49;;;;;;;5.38;2.53;;;5.70;99.90;;;;;;6322857;28;20487;-82
2021/12/02 07:40:50;;;;;;;4.68;2.78;;;5.30;99.90;;;;;;6304311;28;20024;-82
2021/12/02 07:43:50;;;;;;;5.78;2.80;;;5.40;99.90;;;;;;6304223;28;20085;-81
2021/12/02 07:46:51;;;;;;;5.82;3.15;;;5.20;99.90;;;;;;6304675;28;20031;-83
2021/12/02 07:49:51;;;;;;;5.25;3.53;;;5.40;99.90;;;;;;6303366;28;20032;-83
2021/12/02 07:52:53;;;;;;;8.32;4.03;;;5.20;99.90;;;;;;6304196;28;20064;-83
2021/12/02 07:55:55;;;;;;;10.30;4.57;;;5.40;99.90;;;;;;6320302;28;20052;-83
2021/12/02 07:58:56;;;;;;;7.68;4.63;;;5.50;99.90;;;;;;6304058;28;20473;-82
2021/12/02 08:02:00;;;;;;;10.70;5.25;;;5.50;99.90;;;;;;6303840;28;20123;-84
2021/12/02 08:05:01;;;;;;;8.48;4.95;;;5.20;99.90;;;;;;6288057;28;20032;-84
2021/12/02 08:08:02;;;;;;;6.32;3.78;;;5.60;99.90;;;;;;6303369;28;20393;-83
2021/12/02 08:11:02;;;;;;;4.20;2.50;;;5.90;99.90;;;;;;6286758;28;20056;-82
2021/12/02 08:14:07;;;;;;;3.97;2.78;;;5.50;99.90;;;;;;6303583;28;20458;-81
2021/12/02 08:17:08;;;;;;;3.72;2.20;;;5.60;99.90;;;;;;6287848;28;20024;-83
2021/12/02 08:20:09;;;;;;;4.07;2.55;;;5.60;99.90;;;;;;6303092;28;20040;-83
2021/12/02 08:23:09;;;;;;;5.30;3.65;;;5.40;99.90;;;;;;6303019;28;20055;-82
2021/12/02 08:26:13;;;;;;;2.10;1.85;;;5.70;99.90;;;;;;6321511;28;20482;-82
2021/12/02 08:29:13;;;;;;;5.03;3.47;;;5.60;99.90;;;;;;6286760;28;20028;-82
2021/12/02 08:32:14;;;;;;;3.38;2.45;;;;;;;;;;6303469;28;20028;-82
2021/12/02 08:35:15;;;;;;;3.42;2.30;;;5.50;99.90;;;;;;6319978;28;20044;-82
2021/12/02 08:38:18;;;;;;;9.43;4.65;;;;;;;;;;6316091;28;20390;-86
2021/12/02 08:41:20;;;;;;;8.57;3.75;;;7.00;99.90;;;;;;6297807;28;20122;-84
2021/12/02 08:44:22;;;;;;;4.40;2.53;;;8.90;99.90;;;;;;6285855;28;20060;-85
2021/12/02 08:47:23;;;;;;;5.28;2.35;;;8.80;99.90;;;;;;6285852;28;20037;-84
2021/12/02 08:50:24;;;;;;;2.85;1.90;;;7.20;99.90;;;;;;6318440;28;20406;-84
2021/12/02 08:53:25;;;;;;;4.18;2.90;;;;;;;;;;6284960;28;20025;-85
2021/12/02 08:56:28;;;;;;;2.63;1.98;;;;;;;;;;6300564;28;20024;-84
2021/12/02 08:59:30;;;;;;;3.75;2.33;;;6.20;99.90;;;;;;6302372;28;20039;-84
2021/12/02 09:02:30;;;;;;;3.83;2.25;;;7.40;99.90;;;;;;6285974;28;20020;-84
2021/12/02 09:05:31;;;;;;;4.10;2.20;;;6.20;99.90;;;;;;6302682;28;20382;-85
2021/12/02 09:08:32;;;;;;;4.10;1.98;;;;;;;;;;6285082;28;20061;-85
2021/12/02 09:11:33;;;;;;;4.10;1.77;;;6.00;99.90;;;;;;6300849;28;20032;-83
2021/12/02 09:14:34;;;;;;;3.88;2.03;;;6.40;99.90;;;;;;6317463;28;20466;-83
2021/12/02 09:17:38;;;;;;;3.05;2.20;;;6.30;99.90;;;;;;6318806;28;20032;-83
2021/12/02 09:20:38;;;;;;;2.75;2.10;;;7.00;99.90;;;;;;6300781;28;20509;-84
2021/12/02 09:23:39;;;;;;;3.92;2.53;;;;;;;;;;6301816;28;20047;-84
2021/12/02 09:26:40;;;;;;;3.70;1.95;;;5.90;99.90;;;;;;6319663;28;20059;-85
2021/12/02 09:29:40;;;;;;;3.22;1.80;;;5.80;99.90;;;;;;6284126;28;20435;-85
2021/12/02 09:32:41;;;;;;;3.97;2.05;;;5.60;99.90;;;;;;6284818;28;20191;-85
2021/12/02 09:35:42;;;;;;;4.03;2.13;;;5.60;99.90;;;;;;6282950;28;20020;-84
2021/12/02 09:38:43;;;;;;;4.57;2.50;;;5.60;99.90;;;;;;6314997;28;20055;-86
2021/12/02 09:41:44;;;;;;;4.75;2.65;;;5.90;99.90;;;;;;6278004;28;20024;-85
2021/12/02 09:44:47;;;;;;;8.30;6.10;;;5.80;99.90;;;;;;6299635;28;20451;-86
2021/12/02 09:47:49;;;;;;;6.43;5.10;;;5.60;99.90;;;;;;6282977;28;20027;-86
2021/12/02 09:50:53;;;;;;;4.07;2.97;;;;;;;;;;6281663;28;20024;-85
2021/12/02 09:54:05;;;;;;;11.27;4.97;;;;;;;;;;6299002;28;20024;-86
2021/12/02 09:57:07;;;;;;;7.32;4.10;;;;;;;;;;6298224;28;20067;-85
2021/12/02 10:00:16;;;;;;;8.00;4.38;;;5.40;99.90;;;;;;6299179;28;20036;-85
2021/12/02 10:06:28;;;;;;;7.20;3.30;;;5.50;99.90;;;;;;6300212;28;20020;-84
2021/12/02 10:09:39;;;;;;;5.07;3.25;;;5.40;99.90;;;;;;6283226;28;20101;-84
2021/12/02 10:12:51;;;;;;;2.58;2.22;;;5.10;99.90;;;;;;6286998;28;20489;-85
2021/12/02 10:16:21;;;;;;;4.43;2.35;;;5.40;99.90;;;;;;6302044;28;20098;-86
2021/12/02 10:19:27;;;;;;;3.50;2.03;;;;;;;;;;6317266;28;20444;-89
2021/12/02 10:22:28;;;;;;;3.83;2.08;;;5.10;99.90;;;;;;6299806;28;20489;-89
2021/12/02 10:25:30;;;;;;;7.32;2.88;;;5.30;99.90;;;;;;6281973;28;20075;-87
2021/12/02 10:28:35;;;;;;;1.92;1.73;;;5.30;99.90;;;;;;6282707;28;20039;-89
2021/12/02 10:31:37;;;;;;;5.35;2.20;;;5.40;99.90;;;;;;6299457;28;20024;-85
2021/12/02 10:35:10;;;;;;;3.97;2.22;;;5.30;99.90;;;;;;6283075;28;20040;-87
2021/12/02 10:38:34;;;;;;;2.83;1.95;;;5.10;99.90;;;;;;6299206;28;20134;-88
2021/12/02 10:41:34;;;;;;;1.92;1.73;;;5.20;99.90;;;;;;6306931;28;20386;-87
2021/12/02 10:44:36;;;;;;;4.07;2.30;;;;;;;;;;6301678;28;20035;-87
2021/12/02 10:47:36;;;;;;;3.55;2.33;;;5.30;99.90;;;;;;6316439;28;20012;-86
2021/12/02 10:50:38;;;;;;;3.28;2.20;;;7.00;99.90;;;;;;6282008;28;20081;-85
2021/12/02 10:54:03;;;;;;;4.05;2.15;;;5.20;99.90;;;;;;6280880;28;20110;-87
2021/12/02 10:57:10;;;;;;;6.25;3.58;;;5.20;99.90;;;;;;6300504;28;20032;-87
2021/12/02 11:00:15;;;;;;;4.18;2.63;;;5.10;99.90;;;;;;6281727;28;20043;-87
2021/12/02 11:03:16;;;;;;;6.10;2.53;;;5.40;99.90;;;;;;6281884;28;20489;-85
2021/12/02 11:06:43;;;;;;;6.82;6.05;;;5.40;99.90;;;;;;6298087;28;20044;-87
2021/12/02 11:09:43;;;;;;;3.22;2.63;;;6.20;99.90;;;;;;6299743;28;20102;-86
2021/12/02 11:12:45;;;;;;;2.42;1.95;;;5.00;99.90;;;;;;6280208;28;20055;-86
2021/12/02 11:15:46;;;;;;;2.95;2.50;;;4.80;99.90;;;;;;6267402;28;20024;-84
2021/12/02 11:18:47;;;;;;;4.78;2.78;;;4.80;99.90;;;;;;6281055;28;20054;-85
2021/12/02 11:21:47;;;;;;;4.25;2.40;;;4.80;99.90;;;;;;6297317;28;20036;-85
2021/12/02 11:24:48;;;;;;;4.43;2.75;;;4.90;99.90;;;;;;6281303;28;20056;-85
2021/12/02 11:27:50;;;;;;;4.18;2.40;;;4.80;99.90;;;;;;6280760;28;20044;-84
2021/12/02 11:30:50;;;;;;;2.30;2.10;;;4.60;99.90;;;;;;6282892;28;20036;-84
2021/12/02 11:33:56;;;;;;;3.30;2.20;;;;;;;;;;6282718;28;20515;-84
2021/12/02 11:37:05;;;;;;;3.80;2.72;;;4.50;99.90;;;;;;6316293;28;20027;-85
2021/12/02 11:40:11;;;;;;;3.53;2.83;;;4.60;99.90;;;;;;6299628;28;20036;-85
2021/12/02 11:43:20;;;;;;;2.50;2.15;;;4.30;99.90;;;;;;6283212;28;20081;-84
2021/12/02 11:46:21;;;;;;;2.50;2.10;;;4.40;99.90;;;;;;6283965;28;20097;-85
2021/12/02 11:49:21;;;;;;;1.80;1.70;;;4.20;99.90;;;;;;6299522;28;20035;-86
2021/12/02 11:52:22;;;;;;;2.33;1.77;;;;;;;;;;6282766;28;20028;-84
2021/12/02 11:55:35;;;;;;;3.38;2.40;;;4.40;99.90;;;;;;6299185;28;20027;-85
2021/12/02 11:58:36;;;;;;;3.72;2.17;;;;;;;;;;6284052;28;20059;-85
2021/12/02 12:01:36;;;;;;;3.40;2.40;;;4.00;99.90;;;;;;6315741;28;20501;-85
2021/12/02 12:04:39;;;;;;;3.50;1.95;;;;;;;;;;6282622;28;20016;-84
2021/12/02 12:07:47;;;;;;;1.63;1.52;;;3.60;99.90;;;;;;6298974;28;20482;-84
2021/12/02 12:10:48;;;;;;;0.82;0.77;;;;;;;;;;6285950;28;20031;-85
2021/12/02 12:13:55;;;;;;;1.60;1.35;;;3.20;99.90;;;;;;6300953;28;20074;-84
2021/12/02 12:17:04;;;;;;;0.77;0.77;;;3.00;99.90;;;;;;6320024;28;20031;-84
2021/12/02 12:20:05;;;;;;;2.13;1.92;;;;;;;;;;6286629;28;20047;-84
2021/12/02 12:23:42;;;;;;;1.40;1.30;;;3.00;99.90;;;;;;6320166;28;20113;-85
2021/12/02 12:26:45;;;;;;;0.30;0.30;;;3.00;99.90;;;;;;6292859;28;20079;-84
2021/12/02 12:30:18;;;;;;;2.72;2.20;;;3.00;99.90;;;;;;6286933;28;20028;-84
2021/12/02 12:33:36;;;;;;;4.80;3.97;;;3.10;99.90;;;;;;6320118;28;20059;-85
2021/12/02 12:36:38;;;;;;;1.75;1.65;;;;;;;;;;6288688;28;20118;-85
2021/12/02 12:39:39;;;;;;;;;;;3.00;99.90;;;;;;6303845;28;20645;-85
2021/12/02 12:42:47;;;;;;;1.83;1.70;;;3.00;99.90;;;;;;6319571;28;19935;-83
2021/12/02 12:45:48;;;;;;;1.63;1.52;;;3.10;99.90;;;;;;6302791;28;20028;-84
2021/12/02 12:48:49;;;;;;;7.15;6.13;;;;;;;;;;6285984;28;20081;-84
2021/12/02 12:51:53;;;;;;;3.83;3.30;;;2.40;99.90;;;;;;6302867;28;20473;-85
2021/12/02 12:55:16;;;;;;;2.92;2.53;;;2.60;99.90;;;;;;6284444;28;20482;-84
2021/12/02 12:58:20;;;;;;;3.35;1.85;;;2.50;99.90;;;;;;6301736;28;20425;-85
2021/12/02 13:01:22;;;;;;;1.73;1.63;;;2.30;99.90;;;;;;6302528;28;20481;-84
2021/12/02 13:04:25;;;;;;;4.00;2.10;;;;;;;;;;6285666;28;20024;-83
2021/12/02 13:07:26;;;;;;;2.30;1.88;;;;;;;;;;6319057;28;20063;-85
2021/12/02 13:10:29;;;;;;;2.42;2.13;;;2.50;99.90;;;;;;6302444;28;20466;-84
2021/12/02 13:13:34;;;;;;;4.13;3.35;;;2.10;99.90;;;;;;6286153;28;20131;-84
2021/12/02 13:16:36;;;;;;;4.00;2.50;;;1.90;99.90;;;;;;6285734;28;20370;-84
2021/12/02 13:19:37;;;;;;;3.65;2.13;;;;;;;;;;6285384;28;20044;-84
2021/12/02 13:22:38;;;;;;;3.80;3.20;;;;;;;;;;6301744;28;20078;-84
2021/12/02 13:25:47;;;;;;;2.90;2.40;;;2.20;99.90;;;;;;6300883;28;20055;-84
2021/12/02 13:28:48;;;;;;;4.15;2.80;;;;;;;;;;6302058;28;20032;-84
2021/12/02 13:31:49;;;;;;;4.40;2.83;;;;;;;;;;6301793;28;20032;-86
2021/12/02 13:34:50;;;;;;;5.22;3.45;;;;;;;;;;6319464;28;20024;-84
2021/12/02 13:38:02;;;;;;;3.92;3.45;;;2.50;99.90;;;;;;6301033;28;20032;-86
2021/12/02 13:41:17;;;;;;;4.43;3.20;;;2.20;99.90;;;;;;6284970;28;20125;-84
2021/12/02 13:44:32;;;;;;;4.78;2.50;;;2.20;99.90;;;;;;6301769;28;20028;-84
2021/12/02 13:47:35;;;;;;;2.72;2.30;;;;;;;;;;6285871;28;20599;-85
2021/12/02 13:50:37;;;;;;;2.47;2.22;;;;;;;;;;6301664;28;20074;-86
2021/12/02 13:53:45;;;;;;;2.95;2.30;;;2.60;99.90;;;;;;6301487;28;20028;-85
2021/12/02 13:56:46;;;;;;;2.42;2.13;;;;;;;;;;6285107;28;20043;-84
2021/12/02 13:59:47;;;;;;;4.32;2.80;;;2.80;99.90;;;;;;6317690;28;20032;-84
2021/12/02 14:02:51;;;;;;;4.95;3.10;;;2.90;99.90;;;;;;6300655;28;20062;-85
2021/12/02 14:05:57;;;;;;;3.63;2.85;;;2.90;99.90;;;;;;6284634;28;20420;-85
2021/12/02 14:08:58;;;;;;;9.60;8.60;;;;;;;;;;6300614;28;20054;-85
2021/12/02 14:12:07;;;;;;;5.35;4.10;;;2.70;99.90;;;;;;6300893;28;20028;-84
2021/12/02 14:15:10;;;;;;;3.85;3.17;;;3.00;99.90;;;;;;6284194;28;20591;-85
2021/12/02 14:18:11;;;;;;;8.55;7.53;;;2.90;99.90;;;;;;6284092;28;20028;-84
2021/12/02 14:21:12;;;;;;;4.40;3.38;;;3.00;99.90;;;;;;6300264;28;20386;-85
2021/12/02 14:24:13;;;;;;;9.48;4.63;;;;;;;;;;6300629;28;20032;-84
2021/12/02 14:27:16;;;;;;;8.48;4.75;;;2.90;99.90;;;;;;6299837;28;20055;-85
2021/12/02 14:30:18;;;;;;;5.72;4.00;;;2.80;99.90;;;;;;6283494;28;20125;-84
2021/12/02 14:33:22;;;;;;;4.18;3.20;;;;;;;;;;6283999;28;20472;-85
2021/12/02 14:36:24;;;;;;;3.65;3.20;;;4.20;99.90;;;;;;6316993;28;20053;-84
2021/12/02 14:39:25;;;;;;;3.63;3.00;;;;;;;;;;6300421;28;20494;-84
2021/12/02 14:42:26;;;;;;;8.40;4.60;;;;;;;;;;6316982;28;20118;-83
2021/12/02 14:45:27;;;;;;;5.07;3.20;;;;;;;;;;6299935;28;20075;-84
2021/12/02 14:48:28;;;;;;;6.13;4.85;;;;;;;;;;6300000;28;20461;-84
2021/12/02 14:51:29;;;;;;;4.78;4.28;;;2.40;99.90;;;;;;6317133;28;20028;-84
2021/12/02 14:54:30;;;;;;;5.32;4.30;;;;;;;;;;6282853;28;20031;-85
2021/12/02 14:57:31;;;;;;;4.78;4.25;;;;;;;;;;6316435;28;20533;-84
2021/12/02 15:00:33;;;;;;;3.63;3.22;;;2.30;99.90;;;;;;6299740;28;20496;-84
2021/12/02 15:03:33;;;;;;;5.20;4.27;;;2.50;99.90;;;;;;6300167;28;20408;-84
2021/12/02 15:06:37;;;;;;;9.13;5.68;;;2.20;99.90;;;;;;6283390;28;20021;-84
2021/12/02 15:09:39;;;;;;;15.18;9.95;;;2.30;99.90;;;;;;6282803;28;20585;-85
2021/12/02 15:12:42;;;;;;;4.07;3.25;;;;;;;;;;6316451;28;20032;-86
2021/12/02 15:15:44;;;;;;;9.60;5.95;;;2.20;99.90;;;;;;6299538;28;20017;-85
2021/12/02 15:18:45;;;;;;;5.27;4.07;;;;;;;;;;6283108;28;20039;-85
2021/12/02 15:21:46;;;;;;;9.30;6.80;;;;;;;;;;6299430;28;20316;-85
2021/12/02 15:24:47;;;;;;;7.85;6.30;;;;;;;;;;6299403;28;20075;-85
2021/12/02 15:28:12;;;;;;;6.35;4.68;;;2.10;99.90;;;;;;6299466;28;20028;-84
2021/12/02 15:31:17;;;;;;;6.25;5.38;;;2.10;99.90;;;;;;6316276;28;20040;-84
2021/12/02 15:34:17;;;;;;;5.07;4.03;;;2.10;99.90;;;;;;6299367;28;20058;-85
2021/12/02 15:37:18;;;;;;;5.85;4.65;;;;;;;;;;6299378;28;20039;-85
2021/12/02 15:40:19;;;;;;;5.78;4.30;;;;;;;;;;6299096;28;20040;-84
2021/12/02 15:43:29;;;;;;;7.82;5.20;;;2.30;99.90;;;;;;6316729;28;20031;-84
2021/12/02 15:46:36;;;;;;;6.82;6.05;;;1.90;99.90;;;;;;6283084;28;20147;-84
2021/12/02 15:49:38;;;;;;;7.43;5.40;;;2.20;99.90;;;;;;6284539;28;20036;-84
2021/12/02 15:52:41;;;;;;;6.80;5.78;;;;;;;;;;6304153;28;20036;-85
2021/12/02 15:55:42;;;;;;;;;;;2.20;99.90;;;;;;6321617;28;20016;-85
2021/12/02 15:58:43;;;;;;;6.57;4.20;;;2.30;99.90;;;;;;6303955;28;19919;-85
2021/12/02 16:01:48;;;;;;;5.03;4.53;;;2.10;99.90;;;;;;6303644;28;20099;-86
2021/12/02 16:05:07;;;;;;;6.00;5.03;;;2.10;99.90;;;;;;6288413;28;20032;-85
2021/12/02 16:08:26;;;;;;;9.82;6.22;;;;;;;;;;6306624;28;20028;-85
2021/12/02 16:11:39;;;;;;;6.20;4.65;;;2.10;99.90;;;;;;6306001;28;20052;-87
2021/12/02 16:14:40;;;;;;;5.97;5.00;;;;;;;;;;6305101;28;20024;-84
2021/12/02 16:17:41;;;;;;;3.75;3.20;;;2.30;99.90;;;;;;6318250;28;20491;-80
2021/12/02 16:20:42;;;;;;;4.40;3.80;;;;;;;;;;6301251;28;20036;-86
2021/12/02 16:23:43;;;;;;;7.13;4.50;;;;;;;;;;6301402;28;20041;-84
2021/12/02 16:26:44;;;;;;;6.03;4.78;;;2.10;99.90;;;;;;6301121;28;20051;-86
2021/12/02 16:29:44;;;;;;;6.45;5.10;;;2.60;99.90;;;;;;6284798;28;20023;-84
2021/12/02 16:32:46;;;;;;;6.15;4.57;;;;;;;;;;6301863;28;20034;-83
2021/12/02 16:35:47;;;;;;;9.70;4.47;;;;;;;;;;6301116;28;20028;-86
2021/12/02 16:39:03;;;;;;;7.20;4.43;;;2.10;99.90;;;;;;6314747;28;20840;-87
2021/12/02 16:42:05;;;;;;;5.43;3.42;;;2.30;99.90;;;;;;6317020;28;20025;-85
2021/12/02 16:45:07;;;;;;;5.00;3.13;;;2.10;99.90;;;;;;6287675;28;20028;-86
2021/12/02 16:48:18;;;;;;;5.18;2.85;;;2.20;99.90;;;;;;6284275;28;20591;-86
2021/12/02 16:55:45;;;;;;;9.15;3.80;;;2.00;99.90;;;;;;6318397;28;20107;-85
2021/12/02 16:58:46;;;;;;;5.90;3.38;;;;;;;;;;6269328;28;20032;-85
2021/12/02 17:01:47;;;;;;;5.35;3.30;;;;;;;;;;6315854;28;20035;-87
2021/12/02 17:04:48;;;;;;;4.78;2.80;;;;;;;;;;6300824;28;20016;-85
2021/12/02 17:07:49;;;;;;;6.30;2.78;;;;;;;;;;6317400;28;20426;-83
2021/12/02 17:10:53;;;;;;;3.92;2.85;;;;;;;;;;6312411;28;20024;-82